N415AM KMKY-KSAV
Flight info
| Callsign | N415AM |
|---|---|
| Flight time | N/A |
| Altitude | 20000 |
| Route | ROGAN PULEC/N0211F170 ORL DUCEN Q87 VIYAP |
| Aircraft | C414/L-SBDFGRY/S |
Departure
| Time | 2026-04-21 00:56 |
|---|---|
| Airport | Marco Island Executive Airport (KMKY) |
Arrival
| Time | N/A |
|---|---|
| Airport | Savannah Hilton Head International Airport (KSAV) |
| Time | Latitude | Longitude | Altitude | Speed | Heading |
|---|---|---|---|---|---|
| 2026-04-21 00:21 | 25.99858 | -81.67471 | 9 ft | 0 kts | 127° |
| 2026-04-21 00:51 | 25.99855 | -81.67468 | 9 ft | 2 kts | 124° |
| 2026-04-21 00:51 | 25.99855 | -81.67437 | 9 ft | 7 kts | 77° |
| 2026-04-21 00:52 | 25.99805 | -81.67401 | 8 ft | 13 kts | 168° |
| 2026-04-21 00:52 | 25.99703 | -81.67377 | 5 ft | 15 kts | 168° |
| 2026-04-21 00:52 | 25.99596 | -81.67351 | 3 ft | 16 kts | 167° |
| 2026-04-21 00:52 | 25.99487 | -81.67325 | 5 ft | 16 kts | 167° |
| 2026-04-21 00:53 | 25.99380 | -81.67299 | 5 ft | 16 kts | 168° |
| 2026-04-21 00:53 | 25.99273 | -81.67273 | 5 ft | 16 kts | 168° |
| 2026-04-21 00:53 | 25.99168 | -81.67248 | 7 ft | 15 kts | 167° |
| 2026-04-21 00:53 | 25.99073 | -81.67225 | 9 ft | 14 kts | 168° |
| 2026-04-21 00:54 | 25.98982 | -81.67203 | 9 ft | 13 kts | 168° |
| 2026-04-21 00:54 | 25.98896 | -81.67183 | 11 ft | 12 kts | 168° |
| 2026-04-21 00:54 | 25.98837 | -81.67153 | 12 ft | 8 kts | 102° |
| 2026-04-21 00:54 | 25.98859 | -81.67100 | 11 ft | 9 kts | 359° |
| 2026-04-21 00:55 | 25.98964 | -81.67125 | 9 ft | 34 kts | 348° |
| 2026-04-21 00:55 | 25.99363 | -81.67219 | 5 ft | 80 kts | 348° |
| 2026-04-21 00:55 | 25.99960 | -81.67360 | 136 ft | 90 kts | 350° |
| 2026-04-21 00:55 | 26.00565 | -81.67492 | 403 ft | 88 kts | 352° |
| 2026-04-21 00:56 | 26.01179 | -81.67687 | 657 ft | 97 kts | 347° |
| 2026-04-21 00:56 | 26.01878 | -81.67955 | 826 ft | 114 kts | 351° |
| 2026-04-21 00:56 | 26.02666 | -81.68135 | 1125 ft | 119 kts | 359° |
| 2026-04-21 00:56 | 26.03506 | -81.68228 | 1463 ft | 125 kts | 4° |
| 2026-04-21 00:57 | 26.04366 | -81.68259 | 1931 ft | 123 kts | 5° |
| 2026-04-21 00:57 | 26.05229 | -81.68362 | 2303 ft | 126 kts | 360° |
| 2026-04-21 00:57 | 26.06129 | -81.68521 | 2564 ft | 134 kts | 359° |
| 2026-04-21 00:57 | 26.07061 | -81.68672 | 2873 ft | 134 kts | 1° |
| 2026-04-21 00:58 | 26.07965 | -81.68859 | 3308 ft | 130 kts | 360° |
| 2026-04-21 00:58 | 26.08866 | -81.69011 | 3638 ft | 133 kts | 2° |
| 2026-04-21 00:58 | 26.09802 | -81.69111 | 3922 ft | 135 kts | 2° |
| 2026-04-21 00:58 | 26.10743 | -81.69254 | 4211 ft | 141 kts | 358° |
| 2026-04-21 00:59 | 26.11748 | -81.69445 | 4424 ft | 151 kts | 356° |
| 2026-04-21 00:59 | 26.12778 | -81.69634 | 4762 ft | 148 kts | 358° |
| 2026-04-21 00:59 | 26.13812 | -81.69787 | 5101 ft | 149 kts | 0° |
| 2026-04-21 00:59 | 26.14846 | -81.69897 | 5346 ft | 151 kts | 358° |
| 2026-04-21 01:00 | 26.15882 | -81.70116 | 5601 ft | 153 kts | 355° |
| 2026-04-21 01:00 | 26.16939 | -81.70310 | 5819 ft | 155 kts | 356° |
| 2026-04-21 01:00 | 26.17985 | -81.70554 | 6122 ft | 152 kts | 352° |
| 2026-04-21 01:00 | 26.19059 | -81.70762 | 6198 ft | 161 kts | 357° |
| 2026-04-21 01:01 | 26.20160 | -81.70899 | 6501 ft | 155 kts | 358° |
| 2026-04-21 01:01 | 26.21220 | -81.71025 | 6752 ft | 156 kts | 356° |
| 2026-04-21 01:01 | 26.22306 | -81.71164 | 6974 ft | 155 kts | 357° |
| 2026-04-21 01:01 | 26.23366 | -81.71364 | 7220 ft | 156 kts | 351° |
| 2026-04-21 01:02 | 26.24443 | -81.71618 | 7424 ft | 158 kts | 351° |
| 2026-04-21 01:02 | 26.25517 | -81.71829 | 7699 ft | 157 kts | 355° |
| 2026-04-21 01:02 | 26.26599 | -81.72006 | 7926 ft | 158 kts | 352° |
| 2026-04-21 01:02 | 26.27678 | -81.72211 | 8156 ft | 157 kts | 354° |
| 2026-04-21 01:03 | 26.28758 | -81.72394 | 8377 ft | 157 kts | 353° |
| 2026-04-21 01:03 | 26.29844 | -81.72571 | 8589 ft | 160 kts | 354° |
| 2026-04-21 01:03 | 26.30944 | -81.72756 | 8829 ft | 159 kts | 352° |
| 2026-04-21 01:03 | 26.32036 | -81.72932 | 9072 ft | 159 kts | 355° |
| 2026-04-21 01:04 | 26.33130 | -81.73081 | 9301 ft | 160 kts | 353° |
| 2026-04-21 01:04 | 26.34235 | -81.73288 | 9522 ft | 161 kts | 350° |
| 2026-04-21 01:04 | 26.35329 | -81.73511 | 9766 ft | 162 kts | 353° |
| 2026-04-21 01:04 | 26.36447 | -81.73695 | 10001 ft | 161 kts | 353° |
| 2026-04-21 01:05 | 26.37549 | -81.73858 | 10230 ft | 160 kts | 353° |
| 2026-04-21 01:05 | 26.38661 | -81.74034 | 10420 ft | 162 kts | 352° |
| 2026-04-21 01:05 | 26.39752 | -81.74262 | 10662 ft | 160 kts | 351° |
| 2026-04-21 01:05 | 26.40871 | -81.74453 | 10807 ft | 163 kts | 351° |
| 2026-04-21 01:06 | 26.41987 | -81.74633 | 11041 ft | 161 kts | 353° |
| 2026-04-21 01:06 | 26.43105 | -81.74811 | 11201 ft | 164 kts | 351° |
| 2026-04-21 01:06 | 26.44238 | -81.75005 | 11408 ft | 164 kts | 349° |
| 2026-04-21 01:06 | 26.45363 | -81.75215 | 11599 ft | 165 kts | 352° |
| 2026-04-21 01:07 | 26.46487 | -81.75393 | 11800 ft | 165 kts | 351° |
| 2026-04-21 01:07 | 26.47619 | -81.75581 | 12144 ft | 156 kts | 351° |
| 2026-04-21 01:07 | 26.48717 | -81.75745 | 12267 ft | 164 kts | 352° |
| 2026-04-21 01:07 | 26.49869 | -81.75942 | 12440 ft | 165 kts | 347° |
| 2026-04-21 01:08 | 26.50958 | -81.76213 | 12742 ft | 161 kts | 347° |
| 2026-04-21 01:08 | 26.52089 | -81.76430 | 12850 ft | 168 kts | 350° |
| 2026-04-21 01:08 | 26.53251 | -81.76599 | 13069 ft | 167 kts | 351° |
| 2026-04-21 01:08 | 26.54372 | -81.76782 | 13314 ft | 165 kts | 348° |
| 2026-04-21 01:09 | 26.55527 | -81.77010 | 13421 ft | 171 kts | 347° |
| 2026-04-21 01:09 | 26.56684 | -81.77246 | 13672 ft | 168 kts | 348° |
| 2026-04-21 01:09 | 26.57835 | -81.77442 | 13906 ft | 167 kts | 349° |
| 2026-04-21 01:09 | 26.58984 | -81.77631 | 14111 ft | 167 kts | 348° |
| 2026-04-21 01:10 | 26.60131 | -81.77831 | 14304 ft | 167 kts | 348° |
| 2026-04-21 01:10 | 26.61278 | -81.78031 | 14502 ft | 167 kts | 347° |
| 2026-04-21 01:10 | 26.62425 | -81.78232 | 14689 ft | 167 kts | 347° |
| 2026-04-21 01:10 | 26.63573 | -81.78433 | 14893 ft | 167 kts | 347° |
| 2026-04-21 01:11 | 26.64720 | -81.78635 | 15093 ft | 167 kts | 347° |
| 2026-04-21 01:11 | 26.65872 | -81.78838 | 15292 ft | 168 kts | 347° |
| 2026-04-21 01:11 | 26.67024 | -81.79040 | 15494 ft | 168 kts | 346° |
| 2026-04-21 01:11 | 26.68179 | -81.79243 | 15697 ft | 168 kts | 346° |
| 2026-04-21 01:12 | 26.69337 | -81.79446 | 15898 ft | 169 kts | 346° |
| 2026-04-21 01:12 | 26.70496 | -81.79650 | 16106 ft | 169 kts | 346° |
| 2026-04-21 01:12 | 26.71654 | -81.79854 | 16320 ft | 168 kts | 345° |
| 2026-04-21 01:12 | 26.72811 | -81.80056 | 16534 ft | 168 kts | 345° |
| 2026-04-21 01:13 | 26.73965 | -81.80260 | 16743 ft | 168 kts | 345° |
| 2026-04-21 01:13 | 26.75121 | -81.80463 | 16952 ft | 168 kts | 344° |
| 2026-04-21 01:13 | 26.76274 | -81.80666 | 17170 ft | 168 kts | 344° |
| 2026-04-21 01:13 | 26.77426 | -81.80868 | 17382 ft | 167 kts | 343° |
| 2026-04-21 01:14 | 26.78576 | -81.81070 | 17600 ft | 167 kts | 343° |
| 2026-04-21 01:14 | 26.79726 | -81.81273 | 17833 ft | 167 kts | 343° |
| 2026-04-21 01:14 | 26.80874 | -81.81475 | 18050 ft | 167 kts | 343° |
| 2026-04-21 01:14 | 26.82018 | -81.81676 | 18285 ft | 166 kts | 342° |
| 2026-04-21 01:15 | 26.83161 | -81.81878 | 18497 ft | 166 kts | 342° |
| 2026-04-21 01:15 | 26.84302 | -81.82079 | 18687 ft | 166 kts | 342° |
| 2026-04-21 01:15 | 26.85445 | -81.82280 | 18871 ft | 166 kts | 342° |
| 2026-04-21 01:15 | 26.86589 | -81.82482 | 19054 ft | 167 kts | 342° |
| 2026-04-21 01:16 | 26.87739 | -81.82685 | 19237 ft | 168 kts | 342° |
| 2026-04-21 01:16 | 26.88893 | -81.82888 | 19426 ft | 168 kts | 341° |
| 2026-04-21 01:16 | 26.90051 | -81.83092 | 19613 ft | 169 kts | 341° |
| 2026-04-21 01:16 | 26.91211 | -81.83297 | 19799 ft | 169 kts | 341° |
| 2026-04-21 01:17 | 26.92376 | -81.83502 | 19987 ft | 170 kts | 341° |
| 2026-04-21 01:17 | 26.93544 | -81.83708 | 20171 ft | 171 kts | 341° |
| 2026-04-21 01:17 | 26.94752 | -81.83926 | 20185 ft | 180 kts | 341° |
| 2026-04-21 01:17 | 26.96014 | -81.84148 | 20198 ft | 187 kts | 342° |
| 2026-04-21 01:18 | 26.97314 | -81.84375 | 20199 ft | 191 kts | 342° |
| 2026-04-21 01:18 | 26.98641 | -81.84609 | 20197 ft | 194 kts | 342° |
| 2026-04-21 01:18 | 26.99985 | -81.84846 | 20199 ft | 197 kts | 342° |
| 2026-04-21 01:18 | 27.01345 | -81.85084 | 20192 ft | 198 kts | 342° |
| 2026-04-21 01:19 | 27.02711 | -81.85326 | 20194 ft | 199 kts | 342° |
| 2026-04-21 01:19 | 27.04087 | -81.85569 | 20191 ft | 200 kts | 342° |
| 2026-04-21 01:19 | 27.05465 | -81.85812 | 20189 ft | 201 kts | 342° |
| 2026-04-21 01:19 | 27.06848 | -81.86057 | 20190 ft | 201 kts | 342° |
| 2026-04-21 01:20 | 27.08232 | -81.86301 | 20190 ft | 202 kts | 342° |
| 2026-04-21 01:20 | 27.09150 | -81.86464 | 20187 ft | 202 kts | 342° |
| 2026-04-21 01:20 | 27.10539 | -81.86710 | 20182 ft | 202 kts | 342° |
| 2026-04-21 01:20 | 27.11928 | -81.86955 | 20185 ft | 202 kts | 342° |
| 2026-04-21 01:21 | 27.13315 | -81.87200 | 20191 ft | 202 kts | 342° |
| 2026-04-21 01:21 | 27.14703 | -81.87447 | 20188 ft | 202 kts | 342° |
| 2026-04-21 01:21 | 27.16090 | -81.87692 | 20190 ft | 202 kts | 342° |
| 2026-04-21 01:21 | 27.17481 | -81.87938 | 20187 ft | 202 kts | 342° |
| 2026-04-21 01:22 | 27.18870 | -81.88185 | 20189 ft | 202 kts | 342° |
| 2026-04-21 01:22 | 27.20262 | -81.88432 | 20188 ft | 202 kts | 342° |
| 2026-04-21 01:22 | 27.21654 | -81.88678 | 20187 ft | 202 kts | 342° |
| 2026-04-21 01:22 | 27.23046 | -81.88925 | 20180 ft | 203 kts | 342° |
| 2026-04-21 01:23 | 27.24437 | -81.89171 | 20187 ft | 202 kts | 342° |
| 2026-04-21 01:23 | 27.25808 | -81.89470 | 20181 ft | 200 kts | 339° |
| 2026-04-21 01:23 | 27.27181 | -81.89763 | 20183 ft | 201 kts | 341° |
| 2026-04-21 01:23 | 27.28559 | -81.90037 | 20184 ft | 201 kts | 341° |
| 2026-04-21 01:24 | 27.29931 | -81.90328 | 20188 ft | 201 kts | 340° |
| 2026-04-21 01:24 | 27.31304 | -81.90625 | 20181 ft | 201 kts | 340° |
| 2026-04-21 01:24 | 27.32676 | -81.90921 | 20185 ft | 201 kts | 340° |
| 2026-04-21 01:24 | 27.34050 | -81.91217 | 20185 ft | 201 kts | 341° |
| 2026-04-21 01:25 | 27.35424 | -81.91514 | 20182 ft | 201 kts | 341° |
| 2026-04-21 01:25 | 27.36799 | -81.91809 | 20186 ft | 201 kts | 340° |
| 2026-04-21 01:25 | 27.38172 | -81.92106 | 20187 ft | 201 kts | 340° |
| 2026-04-21 01:25 | 27.39547 | -81.92402 | 20186 ft | 201 kts | 340° |
| 2026-04-21 01:26 | 27.40921 | -81.92699 | 20189 ft | 201 kts | 340° |
| 2026-04-21 01:26 | 27.42296 | -81.92996 | 20188 ft | 201 kts | 340° |
| 2026-04-21 01:26 | 27.43671 | -81.93292 | 20190 ft | 201 kts | 340° |
| 2026-04-21 01:26 | 27.45045 | -81.93589 | 20192 ft | 201 kts | 340° |
| 2026-04-21 01:27 | 27.46398 | -81.93881 | 20192 ft | 201 kts | 340° |
| 2026-04-21 01:27 | 27.47788 | -81.94181 | 20196 ft | 201 kts | 340° |
| 2026-04-21 01:27 | 27.49160 | -81.94478 | 20195 ft | 201 kts | 340° |
| 2026-04-21 01:27 | 27.50534 | -81.94774 | 20196 ft | 201 kts | 340° |
| 2026-04-21 01:28 | 27.51888 | -81.95068 | 20196 ft | 201 kts | 340° |
| 2026-04-21 01:28 | 27.53261 | -81.95364 | 20198 ft | 201 kts | 340° |
| 2026-04-21 01:28 | 27.54635 | -81.95662 | 20202 ft | 201 kts | 340° |
| 2026-04-21 01:28 | 27.56009 | -81.95958 | 20204 ft | 201 kts | 340° |
| 2026-04-21 01:29 | 27.57383 | -81.96256 | 20204 ft | 201 kts | 340° |
| 2026-04-21 01:29 | 27.58758 | -81.96553 | 20202 ft | 201 kts | 341° |
| 2026-04-21 01:29 | 27.60134 | -81.96851 | 20201 ft | 201 kts | 341° |
| 2026-04-21 01:29 | 27.61507 | -81.97149 | 20199 ft | 201 kts | 341° |
| 2026-04-21 01:30 | 27.62878 | -81.97446 | 20200 ft | 201 kts | 341° |
| 2026-04-21 01:30 | 27.64250 | -81.97743 | 20203 ft | 201 kts | 341° |
| 2026-04-21 01:30 | 27.65621 | -81.98040 | 20202 ft | 201 kts | 341° |
| 2026-04-21 01:30 | 27.66992 | -81.98337 | 20205 ft | 200 kts | 341° |
| 2026-04-21 01:31 | 27.68360 | -81.98634 | 20207 ft | 200 kts | 341° |
| 2026-04-21 01:31 | 27.69728 | -81.98930 | 20212 ft | 200 kts | 341° |
| 2026-04-21 01:31 | 27.71092 | -81.99226 | 20217 ft | 200 kts | 341° |
| 2026-04-21 01:31 | 27.72458 | -81.99523 | 20218 ft | 200 kts | 341° |
| 2026-04-21 01:32 | 27.73823 | -81.99819 | 20218 ft | 200 kts | 341° |
| 2026-04-21 01:32 | 27.75188 | -82.00116 | 20223 ft | 200 kts | 341° |
| 2026-04-21 01:32 | 27.76555 | -82.00412 | 20222 ft | 200 kts | 341° |
| 2026-04-21 01:32 | 27.77947 | -82.00461 | 20229 ft | 212 kts | 2° |
| 2026-04-21 01:33 | 27.79322 | -81.99737 | 20233 ft | 228 kts | 27° |
| 2026-04-21 01:33 | 27.80544 | -81.98572 | 20233 ft | 231 kts | 33° |
| 2026-04-21 01:33 | 27.81754 | -81.97381 | 20230 ft | 230 kts | 30° |
| 2026-04-21 01:33 | 27.83006 | -81.96273 | 20238 ft | 228 kts | 28° |
| 2026-04-21 01:34 | 27.84271 | -81.95188 | 20232 ft | 228 kts | 28° |
| 2026-04-21 01:34 | 27.85532 | -81.94092 | 20238 ft | 229 kts | 28° |
| 2026-04-21 01:34 | 27.86791 | -81.92990 | 20239 ft | 229 kts | 28° |
| 2026-04-21 01:34 | 27.88050 | -81.91886 | 20245 ft | 229 kts | 28° |
| 2026-04-21 01:35 | 27.89312 | -81.90783 | 20246 ft | 229 kts | 28° |
| 2026-04-21 01:35 | 27.90573 | -81.89680 | 20243 ft | 229 kts | 28° |
| 2026-04-21 01:35 | 27.91832 | -81.88578 | 20255 ft | 229 kts | 28° |
| 2026-04-21 01:35 | 27.93092 | -81.87476 | 20244 ft | 229 kts | 28° |
| 2026-04-21 01:36 | 27.94350 | -81.86373 | 20246 ft | 229 kts | 28° |
| 2026-04-21 01:36 | 27.95607 | -81.85271 | 20245 ft | 229 kts | 28° |
| 2026-04-21 01:36 | 27.96867 | -81.84168 | 20242 ft | 229 kts | 28° |
| 2026-04-21 01:36 | 27.98125 | -81.83066 | 20253 ft | 229 kts | 28° |
| 2026-04-21 01:37 | 27.99381 | -81.81963 | 20243 ft | 229 kts | 28° |
| 2026-04-21 01:37 | 28.00638 | -81.80862 | 20244 ft | 228 kts | 28° |
| 2026-04-21 01:37 | 28.01894 | -81.79760 | 20252 ft | 229 kts | 28° |
| 2026-04-21 01:37 | 28.03150 | -81.78658 | 20262 ft | 228 kts | 28° |
| 2026-04-21 01:38 | 28.04406 | -81.77554 | 20253 ft | 229 kts | 28° |
| 2026-04-21 01:38 | 28.05663 | -81.76451 | 20259 ft | 229 kts | 28° |
| 2026-04-21 01:38 | 28.06918 | -81.75348 | 20253 ft | 228 kts | 28° |
| 2026-04-21 01:38 | 28.08173 | -81.74245 | 20255 ft | 228 kts | 28° |
| 2026-04-21 01:39 | 28.09429 | -81.73141 | 20258 ft | 228 kts | 28° |
| 2026-04-21 01:39 | 28.10685 | -81.72037 | 20260 ft | 229 kts | 28° |
| 2026-04-21 01:39 | 28.11941 | -81.70932 | 20254 ft | 229 kts | 28° |
| 2026-04-21 01:39 | 28.13198 | -81.69828 | 20253 ft | 229 kts | 28° |
| 2026-04-21 01:40 | 28.14454 | -81.68722 | 20257 ft | 229 kts | 28° |
| 2026-04-21 01:40 | 28.15708 | -81.67617 | 20255 ft | 228 kts | 28° |
| 2026-04-21 01:40 | 28.16962 | -81.66512 | 20251 ft | 228 kts | 28° |
| 2026-04-21 01:40 | 28.18216 | -81.65409 | 20259 ft | 228 kts | 28° |
| 2026-04-21 01:41 | 28.19470 | -81.64304 | 20252 ft | 229 kts | 28° |
| 2026-04-21 01:41 | 28.20726 | -81.63197 | 20249 ft | 229 kts | 28° |
| 2026-04-21 01:41 | 28.21981 | -81.62091 | 20256 ft | 229 kts | 28° |
| 2026-04-21 01:41 | 28.23236 | -81.60983 | 20249 ft | 229 kts | 28° |
| 2026-04-21 01:42 | 28.24492 | -81.59875 | 20249 ft | 229 kts | 28° |
| 2026-04-21 01:42 | 28.25748 | -81.58767 | 20252 ft | 229 kts | 28° |
| 2026-04-21 01:42 | 28.27005 | -81.57658 | 20251 ft | 229 kts | 28° |
| 2026-04-21 01:42 | 28.28262 | -81.56548 | 20254 ft | 229 kts | 28° |
| 2026-04-21 01:43 | 28.29518 | -81.55437 | 20251 ft | 229 kts | 28° |
| 2026-04-21 01:43 | 28.30778 | -81.54326 | 20255 ft | 229 kts | 28° |
| 2026-04-21 01:43 | 28.32035 | -81.53214 | 20254 ft | 229 kts | 27° |
| 2026-04-21 01:43 | 28.33276 | -81.52117 | 20254 ft | 229 kts | 27° |
| 2026-04-21 01:44 | 28.34534 | -81.51004 | 20254 ft | 229 kts | 27° |
| 2026-04-21 01:44 | 28.35793 | -81.49890 | 20254 ft | 229 kts | 27° |
| 2026-04-21 01:44 | 28.37053 | -81.48776 | 20257 ft | 229 kts | 27° |
| 2026-04-21 01:44 | 28.38312 | -81.47661 | 20257 ft | 230 kts | 27° |
| 2026-04-21 01:45 | 28.39571 | -81.46546 | 20258 ft | 230 kts | 27° |
| 2026-04-21 01:45 | 28.40832 | -81.45429 | 20254 ft | 230 kts | 27° |
| 2026-04-21 01:45 | 28.42094 | -81.44311 | 20254 ft | 230 kts | 27° |
| 2026-04-21 01:45 | 28.43356 | -81.43193 | 20250 ft | 230 kts | 27° |
| 2026-04-21 01:46 | 28.44619 | -81.42073 | 20249 ft | 230 kts | 27° |
| 2026-04-21 01:46 | 28.45881 | -81.40954 | 20248 ft | 230 kts | 27° |
| 2026-04-21 01:46 | 28.47143 | -81.39834 | 20251 ft | 230 kts | 27° |
| 2026-04-21 01:46 | 28.48404 | -81.38716 | 20241 ft | 230 kts | 27° |
| 2026-04-21 01:47 | 28.49664 | -81.37596 | 20241 ft | 230 kts | 27° |
| 2026-04-21 01:47 | 28.50924 | -81.36478 | 20241 ft | 230 kts | 27° |
| 2026-04-21 01:47 | 28.52183 | -81.35359 | 20241 ft | 230 kts | 27° |
| 2026-04-21 01:47 | 28.53446 | -81.34245 | 20245 ft | 228 kts | 25° |
| 2026-04-21 01:48 | 28.54820 | -81.33528 | 20238 ft | 209 kts | 360° |
| 2026-04-21 01:48 | 28.56232 | -81.33459 | 20242 ft | 201 kts | 350° |
| 2026-04-21 01:48 | 28.57635 | -81.33448 | 20247 ft | 202 kts | 351° |
| 2026-04-21 01:48 | 28.59040 | -81.33425 | 20247 ft | 202 kts | 351° |
| 2026-04-21 01:49 | 28.60448 | -81.33402 | 20245 ft | 203 kts | 351° |
| 2026-04-21 01:49 | 28.61858 | -81.33379 | 20245 ft | 203 kts | 351° |
| 2026-04-21 01:49 | 28.63267 | -81.33357 | 20245 ft | 203 kts | 351° |
| 2026-04-21 01:49 | 28.64677 | -81.33334 | 20247 ft | 203 kts | 351° |
| 2026-04-21 01:50 | 28.66086 | -81.33311 | 20247 ft | 203 kts | 351° |
| 2026-04-21 01:50 | 28.67495 | -81.33288 | 20246 ft | 202 kts | 351° |
| 2026-04-21 01:50 | 28.68902 | -81.33265 | 20257 ft | 202 kts | 351° |
| 2026-04-21 01:50 | 28.70311 | -81.33243 | 20254 ft | 202 kts | 351° |
| 2026-04-21 01:51 | 28.71719 | -81.33220 | 20252 ft | 202 kts | 351° |
| 2026-04-21 01:51 | 28.73127 | -81.33197 | 20251 ft | 202 kts | 351° |
| 2026-04-21 01:51 | 28.74517 | -81.33175 | 20251 ft | 202 kts | 351° |
| 2026-04-21 01:51 | 28.75924 | -81.33152 | 20256 ft | 202 kts | 351° |
| 2026-04-21 01:52 | 28.77330 | -81.33129 | 20253 ft | 202 kts | 351° |
| 2026-04-21 01:52 | 28.80143 | -81.33084 | 20257 ft | 202 kts | 351° |
| 2026-04-21 01:52 | 28.81548 | -81.33061 | 20257 ft | 202 kts | 351° |
| 2026-04-21 01:53 | 28.82954 | -81.33038 | 20253 ft | 202 kts | 351° |
| 2026-04-21 01:53 | 28.84358 | -81.33016 | 20255 ft | 202 kts | 351° |
| 2026-04-21 01:53 | 28.85763 | -81.32993 | 20255 ft | 202 kts | 351° |
| 2026-04-21 01:53 | 28.87169 | -81.32970 | 20257 ft | 202 kts | 351° |
| 2026-04-21 01:54 | 28.88574 | -81.32947 | 20256 ft | 202 kts | 351° |
| 2026-04-21 01:54 | 28.89981 | -81.32925 | 20254 ft | 202 kts | 351° |
| 2026-04-21 01:54 | 28.91389 | -81.32903 | 20254 ft | 202 kts | 351° |
| 2026-04-21 01:54 | 28.92794 | -81.32878 | 20287 ft | 202 kts | 351° |
| 2026-04-21 01:55 | 28.94201 | -81.32856 | 20285 ft | 202 kts | 351° |
| 2026-04-21 01:55 | 28.95606 | -81.32834 | 20287 ft | 202 kts | 351° |
| 2026-04-21 01:55 | 28.97011 | -81.32811 | 20289 ft | 202 kts | 352° |
| 2026-04-21 01:55 | 28.98418 | -81.32787 | 20289 ft | 202 kts | 352° |
| 2026-04-21 01:56 | 28.99822 | -81.32764 | 20293 ft | 202 kts | 351° |
| 2026-04-21 01:56 | 29.01224 | -81.32743 | 20291 ft | 202 kts | 352° |
| 2026-04-21 01:56 | 29.02626 | -81.32719 | 20295 ft | 201 kts | 352° |
| 2026-04-21 01:56 | 29.04028 | -81.32696 | 20294 ft | 201 kts | 352° |
| 2026-04-21 01:57 | 29.05430 | -81.32673 | 20292 ft | 201 kts | 352° |
| 2026-04-21 01:57 | 29.06829 | -81.32651 | 20291 ft | 201 kts | 352° |
| 2026-04-21 01:57 | 29.08229 | -81.32628 | 20293 ft | 201 kts | 352° |
| 2026-04-21 01:57 | 29.09627 | -81.32606 | 20294 ft | 201 kts | 352° |
| 2026-04-21 01:58 | 29.11026 | -81.32582 | 20289 ft | 201 kts | 352° |
| 2026-04-21 01:58 | 29.12425 | -81.32560 | 20291 ft | 201 kts | 352° |
| 2026-04-21 01:58 | 29.13825 | -81.32536 | 20293 ft | 201 kts | 352° |
| 2026-04-21 01:58 | 29.15223 | -81.32514 | 20292 ft | 201 kts | 352° |
| 2026-04-21 01:59 | 29.16601 | -81.32493 | 20291 ft | 201 kts | 352° |
| 2026-04-21 01:59 | 29.17998 | -81.32469 | 20290 ft | 201 kts | 352° |
| 2026-04-21 01:59 | 29.19395 | -81.32447 | 20289 ft | 201 kts | 352° |
| 2026-04-21 01:59 | 29.20792 | -81.32424 | 20289 ft | 201 kts | 352° |
| 2026-04-21 02:00 | 29.22191 | -81.32400 | 20287 ft | 201 kts | 352° |
| 2026-04-21 02:00 | 29.23586 | -81.32378 | 20285 ft | 201 kts | 352° |
| 2026-04-21 02:00 | 29.24983 | -81.32354 | 20284 ft | 201 kts | 352° |
| 2026-04-21 02:00 | 29.26379 | -81.32332 | 20280 ft | 201 kts | 352° |
| 2026-04-21 02:01 | 29.27773 | -81.32323 | 20274 ft | 198 kts | 348° |
| 2026-04-21 02:01 | 29.29143 | -81.32427 | 20273 ft | 198 kts | 349° |
| 2026-04-21 02:01 | 29.30520 | -81.32490 | 20276 ft | 198 kts | 349° |
| 2026-04-21 02:01 | 29.31895 | -81.32563 | 20275 ft | 198 kts | 349° |
| 2026-04-21 02:02 | 29.33269 | -81.32644 | 20281 ft | 198 kts | 349° |
| 2026-04-21 02:02 | 29.34644 | -81.32725 | 20294 ft | 198 kts | 349° |
| 2026-04-21 02:02 | 29.36019 | -81.32806 | 20294 ft | 198 kts | 349° |
| 2026-04-21 02:02 | 29.37393 | -81.32887 | 20294 ft | 198 kts | 349° |
| 2026-04-21 02:03 | 29.38766 | -81.32968 | 20293 ft | 198 kts | 349° |
| 2026-04-21 02:03 | 29.40138 | -81.33048 | 20298 ft | 198 kts | 349° |
| 2026-04-21 02:03 | 29.41511 | -81.33129 | 20300 ft | 197 kts | 349° |
| 2026-04-21 02:03 | 29.42883 | -81.33210 | 20298 ft | 197 kts | 349° |
| 2026-04-21 02:04 | 29.44255 | -81.33291 | 20299 ft | 198 kts | 349° |
| 2026-04-21 02:04 | 29.45627 | -81.33372 | 20302 ft | 197 kts | 349° |
| 2026-04-21 02:04 | 29.47002 | -81.33453 | 20299 ft | 198 kts | 349° |
| 2026-04-21 02:04 | 29.48375 | -81.33534 | 20299 ft | 198 kts | 349° |
| 2026-04-21 02:05 | 29.49748 | -81.33615 | 20301 ft | 198 kts | 349° |
| 2026-04-21 02:05 | 29.51121 | -81.33695 | 20300 ft | 197 kts | 349° |
| 2026-04-21 02:05 | 29.52492 | -81.33777 | 20301 ft | 197 kts | 349° |
| 2026-04-21 02:05 | 29.53863 | -81.33857 | 20301 ft | 197 kts | 349° |
| 2026-04-21 02:06 | 29.55235 | -81.33939 | 20296 ft | 197 kts | 349° |
| 2026-04-21 02:06 | 29.56605 | -81.34019 | 20299 ft | 197 kts | 349° |
| 2026-04-21 02:06 | 29.57975 | -81.34100 | 20298 ft | 197 kts | 349° |
| 2026-04-21 02:06 | 29.59344 | -81.34181 | 20299 ft | 197 kts | 349° |
| 2026-04-21 02:07 | 29.60713 | -81.34262 | 20299 ft | 197 kts | 349° |
| 2026-04-21 02:07 | 29.62063 | -81.34342 | 20297 ft | 197 kts | 349° |
| 2026-04-21 02:07 | 29.63433 | -81.34423 | 20295 ft | 197 kts | 349° |
| 2026-04-21 02:07 | 29.64802 | -81.34504 | 20295 ft | 197 kts | 349° |
| 2026-04-21 02:08 | 29.66170 | -81.34585 | 20293 ft | 197 kts | 349° |
| 2026-04-21 02:08 | 29.67536 | -81.34666 | 20291 ft | 197 kts | 349° |
| 2026-04-21 02:08 | 29.68904 | -81.34746 | 20291 ft | 197 kts | 349° |
| 2026-04-21 02:08 | 29.70270 | -81.34828 | 20298 ft | 197 kts | 349° |
| 2026-04-21 02:09 | 29.71637 | -81.34908 | 20302 ft | 197 kts | 349° |
| 2026-04-21 02:09 | 29.73003 | -81.34989 | 20304 ft | 196 kts | 349° |
| 2026-04-21 02:09 | 29.74367 | -81.35070 | 20304 ft | 196 kts | 349° |
| 2026-04-21 02:09 | 29.75731 | -81.35151 | 20307 ft | 196 kts | 349° |
| 2026-04-21 02:10 | 29.77096 | -81.35231 | 20308 ft | 196 kts | 349° |
| 2026-04-21 02:10 | 29.78017 | -81.35286 | 20311 ft | 196 kts | 349° |
| 2026-04-21 02:10 | 29.79381 | -81.35367 | 20311 ft | 196 kts | 349° |
| 2026-04-21 02:10 | 29.80745 | -81.35448 | 20314 ft | 196 kts | 349° |
| 2026-04-21 02:11 | 29.82551 | -81.35555 | 20316 ft | 196 kts | 349° |
| 2026-04-21 02:11 | 29.83472 | -81.35610 | 20316 ft | 196 kts | 349° |
| 2026-04-21 02:11 | 29.84836 | -81.35691 | 20321 ft | 196 kts | 349° |
| 2026-04-21 02:11 | 29.86201 | -81.35772 | 20321 ft | 196 kts | 349° |
| 2026-04-21 02:12 | 29.87546 | -81.35852 | 20321 ft | 196 kts | 349° |
| 2026-04-21 02:12 | 29.88912 | -81.35933 | 20322 ft | 197 kts | 349° |
| 2026-04-21 02:12 | 29.90278 | -81.36014 | 20323 ft | 197 kts | 349° |
| 2026-04-21 02:12 | 29.91643 | -81.36096 | 20322 ft | 196 kts | 349° |
| 2026-04-21 02:13 | 29.93008 | -81.36177 | 20320 ft | 196 kts | 349° |
| 2026-04-21 02:13 | 29.94372 | -81.36258 | 20323 ft | 196 kts | 349° |
| 2026-04-21 02:13 | 29.95736 | -81.36339 | 20320 ft | 196 kts | 349° |
| 2026-04-21 02:13 | 29.97102 | -81.36420 | 20319 ft | 196 kts | 349° |
| 2026-04-21 02:14 | 29.98466 | -81.36501 | 20322 ft | 196 kts | 349° |
| 2026-04-21 02:14 | 29.99831 | -81.36583 | 20322 ft | 196 kts | 349° |
| 2026-04-21 02:14 | 30.01195 | -81.36664 | 20317 ft | 196 kts | 349° |
| 2026-04-21 02:14 | 30.02560 | -81.36745 | 20320 ft | 196 kts | 349° |
| 2026-04-21 02:15 | 30.03923 | -81.36827 | 20315 ft | 196 kts | 349° |
| 2026-04-21 02:15 | 30.05287 | -81.36908 | 20313 ft | 196 kts | 349° |
| 2026-04-21 02:15 | 30.06651 | -81.36989 | 20313 ft | 196 kts | 349° |
| 2026-04-21 02:15 | 30.08013 | -81.37070 | 20308 ft | 196 kts | 349° |
| 2026-04-21 02:16 | 30.09362 | -81.37150 | 20306 ft | 192 kts | 349° |
| 2026-04-21 02:16 | 30.10684 | -81.37228 | 20294 ft | 189 kts | 349° |
| 2026-04-21 02:16 | 30.11987 | -81.37307 | 20281 ft | 187 kts | 349° |
| 2026-04-21 02:16 | 30.13279 | -81.37385 | 20266 ft | 185 kts | 349° |
| 2026-04-21 02:17 | 30.14564 | -81.37461 | 20245 ft | 184 kts | 349° |
| 2026-04-21 02:17 | 30.15852 | -81.37540 | 20142 ft | 188 kts | 349° |
| 2026-04-21 02:17 | 30.17170 | -81.37620 | 20006 ft | 191 kts | 349° |
| 2026-04-21 02:17 | 30.18498 | -81.37697 | 19883 ft | 191 kts | 350° |
| 2026-04-21 02:18 | 30.19829 | -81.37777 | 19761 ft | 192 kts | 350° |
| 2026-04-21 02:18 | 30.21165 | -81.37857 | 19636 ft | 193 kts | 350° |
| 2026-04-21 02:18 | 30.22504 | -81.37937 | 19517 ft | 193 kts | 350° |
| 2026-04-21 02:18 | 30.23848 | -81.38018 | 19394 ft | 194 kts | 350° |
| 2026-04-21 02:19 | 30.25194 | -81.38097 | 19277 ft | 194 kts | 351° |
| 2026-04-21 02:19 | 30.26542 | -81.38178 | 19159 ft | 194 kts | 351° |
| 2026-04-21 02:19 | 30.27891 | -81.38259 | 19046 ft | 194 kts | 351° |
| 2026-04-21 02:19 | 30.29239 | -81.38340 | 18928 ft | 194 kts | 351° |
| 2026-04-21 02:20 | 30.30587 | -81.38420 | 18811 ft | 194 kts | 351° |
| 2026-04-21 02:20 | 30.31935 | -81.38501 | 18696 ft | 194 kts | 351° |
| 2026-04-21 02:20 | 30.33284 | -81.38582 | 18574 ft | 194 kts | 351° |
| 2026-04-21 02:20 | 30.34632 | -81.38663 | 18445 ft | 194 kts | 351° |
| 2026-04-21 02:21 | 30.35979 | -81.38744 | 18317 ft | 194 kts | 351° |
| 2026-04-21 02:21 | 30.37307 | -81.38823 | 18188 ft | 194 kts | 351° |
| 2026-04-21 02:21 | 30.38652 | -81.38904 | 18056 ft | 193 kts | 351° |
| 2026-04-21 02:21 | 30.39993 | -81.38985 | 17928 ft | 193 kts | 351° |
| 2026-04-21 02:22 | 30.41335 | -81.39065 | 17801 ft | 193 kts | 351° |
| 2026-04-21 02:22 | 30.42675 | -81.39146 | 17677 ft | 193 kts | 351° |
| 2026-04-21 02:22 | 30.44014 | -81.39226 | 17554 ft | 193 kts | 351° |
| 2026-04-21 02:22 | 30.45351 | -81.39307 | 17430 ft | 192 kts | 351° |
| 2026-04-21 02:23 | 30.46687 | -81.39385 | 17307 ft | 192 kts | 352° |
| 2026-04-21 02:23 | 30.48024 | -81.39453 | 17184 ft | 192 kts | 352° |
| 2026-04-21 02:23 | 30.49358 | -81.39522 | 17061 ft | 192 kts | 352° |
| 2026-04-21 02:23 | 30.50692 | -81.39593 | 16940 ft | 192 kts | 352° |
| 2026-04-21 02:24 | 30.52024 | -81.39663 | 16829 ft | 192 kts | 352° |
| 2026-04-21 02:24 | 30.53355 | -81.39734 | 16710 ft | 191 kts | 352° |
| 2026-04-21 02:24 | 30.54685 | -81.39804 | 16597 ft | 191 kts | 352° |
| 2026-04-21 02:24 | 30.56013 | -81.39874 | 16479 ft | 191 kts | 352° |
| 2026-04-21 02:25 | 30.57341 | -81.39944 | 16364 ft | 191 kts | 352° |
| 2026-04-21 02:25 | 30.58669 | -81.40014 | 16246 ft | 191 kts | 352° |
| 2026-04-21 02:25 | 30.59998 | -81.40085 | 16128 ft | 191 kts | 352° |
| 2026-04-21 02:25 | 30.61324 | -81.40155 | 16018 ft | 191 kts | 352° |
| 2026-04-21 02:26 | 30.62650 | -81.40225 | 15903 ft | 191 kts | 352° |
| 2026-04-21 02:26 | 30.63976 | -81.40296 | 15792 ft | 191 kts | 352° |
| 2026-04-21 02:26 | 30.65301 | -81.40365 | 15679 ft | 191 kts | 352° |
| 2026-04-21 02:26 | 30.66624 | -81.40436 | 15568 ft | 190 kts | 352° |
| 2026-04-21 02:27 | 30.67949 | -81.40506 | 15461 ft | 190 kts | 352° |
| 2026-04-21 02:27 | 30.69270 | -81.40576 | 15356 ft | 190 kts | 352° |
| 2026-04-21 02:27 | 30.70593 | -81.40646 | 15249 ft | 190 kts | 352° |
| 2026-04-21 02:27 | 30.71916 | -81.40716 | 15136 ft | 190 kts | 352° |
| 2026-04-21 02:28 | 30.73220 | -81.40786 | 15027 ft | 190 kts | 352° |
| 2026-04-21 02:28 | 30.74543 | -81.40856 | 14919 ft | 190 kts | 352° |
| 2026-04-21 02:28 | 30.75864 | -81.40926 | 14813 ft | 190 kts | 352° |
| 2026-04-21 02:28 | 30.77185 | -81.40996 | 14707 ft | 190 kts | 352° |
| 2026-04-21 02:29 | 30.78505 | -81.41066 | 14599 ft | 190 kts | 352° |
| 2026-04-21 02:29 | 30.79826 | -81.41136 | 14493 ft | 190 kts | 352° |
| 2026-04-21 02:29 | 30.81145 | -81.41206 | 14388 ft | 190 kts | 352° |
| 2026-04-21 02:29 | 30.82463 | -81.41276 | 14286 ft | 190 kts | 352° |
| 2026-04-21 02:30 | 30.83782 | -81.41347 | 14180 ft | 190 kts | 352° |
| 2026-04-21 02:30 | 30.85099 | -81.41416 | 14075 ft | 190 kts | 352° |
| 2026-04-21 02:30 | 30.86416 | -81.41487 | 13955 ft | 189 kts | 352° |
| 2026-04-21 02:30 | 30.87731 | -81.41557 | 13839 ft | 189 kts | 352° |
| 2026-04-21 02:31 | 30.89044 | -81.41626 | 13722 ft | 188 kts | 352° |
| 2026-04-21 02:31 | 30.90352 | -81.41696 | 13615 ft | 188 kts | 352° |
| 2026-04-21 02:31 | 30.91655 | -81.41766 | 13504 ft | 187 kts | 352° |
| 2026-04-21 02:31 | 30.92956 | -81.41835 | 13391 ft | 187 kts | 352° |
| 2026-04-21 02:32 | 30.94252 | -81.41904 | 13282 ft | 186 kts | 352° |
| 2026-04-21 02:32 | 30.95544 | -81.41973 | 13175 ft | 186 kts | 352° |
| 2026-04-21 02:32 | 30.96832 | -81.42041 | 13068 ft | 185 kts | 353° |
| 2026-04-21 02:32 | 30.98117 | -81.42110 | 12961 ft | 184 kts | 353° |
| 2026-04-21 02:33 | 30.99396 | -81.42178 | 12853 ft | 184 kts | 353° |
| 2026-04-21 02:33 | 31.00671 | -81.42246 | 12746 ft | 183 kts | 353° |
| 2026-04-21 02:33 | 31.01943 | -81.42314 | 12644 ft | 183 kts | 353° |
| 2026-04-21 02:33 | 31.03210 | -81.42382 | 12536 ft | 182 kts | 353° |
| 2026-04-21 02:34 | 31.04474 | -81.42450 | 12435 ft | 181 kts | 353° |
| 2026-04-21 02:34 | 31.05734 | -81.42516 | 12335 ft | 181 kts | 353° |
| 2026-04-21 02:34 | 31.06989 | -81.42584 | 12233 ft | 180 kts | 353° |
| 2026-04-21 02:34 | 31.08241 | -81.42650 | 12130 ft | 180 kts | 353° |
| 2026-04-21 02:35 | 31.09488 | -81.42717 | 12029 ft | 179 kts | 353° |
| 2026-04-21 02:35 | 31.10731 | -81.42784 | 11932 ft | 179 kts | 353° |
| 2026-04-21 02:35 | 31.11971 | -81.42850 | 11833 ft | 178 kts | 354° |
| 2026-04-21 02:35 | 31.13205 | -81.42916 | 11733 ft | 177 kts | 354° |
| 2026-04-21 02:36 | 31.14436 | -81.42982 | 11637 ft | 177 kts | 354° |
| 2026-04-21 02:36 | 31.15663 | -81.43048 | 11536 ft | 176 kts | 354° |
| 2026-04-21 02:36 | 31.16887 | -81.43114 | 11438 ft | 176 kts | 354° |
| 2026-04-21 02:36 | 31.18107 | -81.43179 | 11344 ft | 175 kts | 354° |
| 2026-04-21 02:37 | 31.19323 | -81.43244 | 11250 ft | 175 kts | 354° |
| 2026-04-21 02:37 | 31.20537 | -81.43309 | 11172 ft | 174 kts | 354° |
| 2026-04-21 02:37 | 31.21747 | -81.43374 | 11062 ft | 175 kts | 354° |
| 2026-04-21 02:37 | 31.22965 | -81.43439 | 10930 ft | 175 kts | 354° |
| 2026-04-21 02:38 | 31.24185 | -81.43505 | 10799 ft | 176 kts | 354° |
| 2026-04-21 02:38 | 31.25406 | -81.43523 | 10669 ft | 177 kts | 3° |
| 2026-04-21 02:38 | 31.26612 | -81.43217 | 10541 ft | 178 kts | 9° |
| 2026-04-21 02:38 | 31.27814 | -81.42879 | 10412 ft | 177 kts | 9° |
| 2026-04-21 02:39 | 31.29013 | -81.42558 | 10284 ft | 177 kts | 8° |
| 2026-04-21 02:39 | 31.30210 | -81.42243 | 10158 ft | 176 kts | 8° |
| 2026-04-21 02:39 | 31.31403 | -81.41928 | 10024 ft | 175 kts | 9° |
| 2026-04-21 02:39 | 31.32577 | -81.41618 | 9884 ft | 175 kts | 9° |
| 2026-04-21 02:40 | 31.33765 | -81.41303 | 9743 ft | 175 kts | 9° |
| 2026-04-21 02:40 | 31.34951 | -81.40990 | 9605 ft | 175 kts | 9° |
| 2026-04-21 02:40 | 31.36137 | -81.40675 | 9465 ft | 175 kts | 9° |
| 2026-04-21 02:40 | 31.37322 | -81.40362 | 9331 ft | 174 kts | 9° |
| 2026-04-21 02:41 | 31.38506 | -81.40048 | 9198 ft | 174 kts | 9° |
| 2026-04-21 02:41 | 31.39690 | -81.39734 | 9063 ft | 174 kts | 9° |
| 2026-04-21 02:41 | 31.40872 | -81.39421 | 8927 ft | 174 kts | 9° |
| 2026-04-21 02:41 | 31.42052 | -81.39108 | 8799 ft | 174 kts | 9° |
| 2026-04-21 02:42 | 31.43231 | -81.38795 | 8670 ft | 174 kts | 10° |
| 2026-04-21 02:42 | 31.44410 | -81.38483 | 8536 ft | 174 kts | 10° |
| 2026-04-21 02:42 | 31.45588 | -81.38171 | 8402 ft | 173 kts | 10° |
| 2026-04-21 02:42 | 31.46764 | -81.37858 | 8272 ft | 173 kts | 10° |
| 2026-04-21 02:43 | 31.47938 | -81.37547 | 8145 ft | 173 kts | 10° |
| 2026-04-21 02:43 | 31.49113 | -81.37235 | 8017 ft | 173 kts | 10° |
| 2026-04-21 02:43 | 31.50286 | -81.36923 | 7894 ft | 173 kts | 10° |
| 2026-04-21 02:43 | 31.51458 | -81.36612 | 7772 ft | 173 kts | 10° |
| 2026-04-21 02:44 | 31.52629 | -81.36301 | 7646 ft | 172 kts | 10° |
| 2026-04-21 02:44 | 31.53798 | -81.35990 | 7525 ft | 172 kts | 11° |
| 2026-04-21 02:44 | 31.54967 | -81.35679 | 7403 ft | 172 kts | 11° |
| 2026-04-21 02:44 | 31.56136 | -81.35368 | 7292 ft | 172 kts | 11° |
| 2026-04-21 02:45 | 31.57303 | -81.35058 | 7160 ft | 172 kts | 11° |
| 2026-04-21 02:45 | 31.58471 | -81.34748 | 7044 ft | 172 kts | 11° |
| 2026-04-21 02:45 | 31.59637 | -81.34437 | 6928 ft | 172 kts | 11° |
| 2026-04-21 02:45 | 31.60801 | -81.34127 | 6810 ft | 172 kts | 11° |
| 2026-04-21 02:46 | 31.61964 | -81.33817 | 6694 ft | 172 kts | 11° |
| 2026-04-21 02:46 | 31.63128 | -81.33508 | 6579 ft | 171 kts | 11° |
| 2026-04-21 02:46 | 31.64291 | -81.33197 | 6453 ft | 171 kts | 11° |
| 2026-04-21 02:46 | 31.65453 | -81.32887 | 6327 ft | 171 kts | 11° |
| 2026-04-21 02:47 | 31.66617 | -81.32578 | 6208 ft | 171 kts | 11° |
| 2026-04-21 02:47 | 31.67781 | -81.32267 | 6084 ft | 171 kts | 11° |
| 2026-04-21 02:47 | 31.68944 | -81.31957 | 5967 ft | 172 kts | 11° |
| 2026-04-21 02:47 | 31.70093 | -81.31651 | 5847 ft | 172 kts | 11° |
| 2026-04-21 02:48 | 31.71272 | -81.31336 | 5726 ft | 172 kts | 11° |
| 2026-04-21 02:48 | 31.72423 | -81.31029 | 5606 ft | 172 kts | 11° |
| 2026-04-21 02:48 | 31.73591 | -81.30717 | 5491 ft | 172 kts | 11° |
| 2026-04-21 02:48 | 31.74760 | -81.30406 | 5370 ft | 173 kts | 11° |
| 2026-04-21 02:49 | 31.75931 | -81.30092 | 5256 ft | 173 kts | 11° |
| 2026-04-21 02:49 | 31.77105 | -81.29779 | 5133 ft | 173 kts | 11° |
| 2026-04-21 02:49 | 31.78280 | -81.29465 | 5015 ft | 173 kts | 11° |
| 2026-04-21 02:49 | 31.79457 | -81.29150 | 4899 ft | 173 kts | 11° |
| 2026-04-21 02:50 | 31.80634 | -81.28836 | 4759 ft | 174 kts | 11° |
| 2026-04-21 02:50 | 31.81812 | -81.28520 | 4637 ft | 174 kts | 11° |
| 2026-04-21 02:50 | 31.82991 | -81.28205 | 4518 ft | 174 kts | 11° |
| 2026-04-21 02:50 | 31.84170 | -81.27890 | 4393 ft | 174 kts | 11° |
| 2026-04-21 02:51 | 31.85350 | -81.27574 | 4277 ft | 174 kts | 11° |
| 2026-04-21 02:51 | 31.86530 | -81.27257 | 4165 ft | 174 kts | 11° |
| 2026-04-21 02:51 | 31.87711 | -81.26942 | 4048 ft | 174 kts | 11° |
| 2026-04-21 02:51 | 31.88894 | -81.26625 | 3935 ft | 174 kts | 11° |
| 2026-04-21 02:52 | 31.90077 | -81.26309 | 3815 ft | 174 kts | 11° |
| 2026-04-21 02:52 | 31.91259 | -81.25991 | 3701 ft | 174 kts | 11° |
| 2026-04-21 02:52 | 31.92440 | -81.25675 | 3591 ft | 174 kts | 11° |
| 2026-04-21 02:52 | 31.93622 | -81.25357 | 3474 ft | 174 kts | 11° |
| 2026-04-21 02:53 | 31.94805 | -81.25040 | 3358 ft | 174 kts | 11° |
| 2026-04-21 02:53 | 31.95988 | -81.24723 | 3240 ft | 175 kts | 11° |
| 2026-04-21 02:53 | 31.97175 | -81.24405 | 3129 ft | 175 kts | 11° |
| 2026-04-21 02:53 | 31.98365 | -81.24085 | 3020 ft | 176 kts | 11° |
| 2026-04-21 02:54 | 31.99558 | -81.23764 | 2905 ft | 176 kts | 11° |
| 2026-04-21 02:54 | 32.00739 | -81.23447 | 2794 ft | 173 kts | 11° |
| 2026-04-21 02:54 | 32.01893 | -81.23073 | 2654 ft | 172 kts | 19° |
| 2026-04-21 02:54 | 32.02970 | -81.22498 | 2567 ft | 169 kts | 25° |
| 2026-04-21 02:55 | 32.04017 | -81.21874 | 2454 ft | 166 kts | 25° |
| 2026-04-21 02:55 | 32.05033 | -81.21264 | 2280 ft | 163 kts | 26° |
| 2026-04-21 02:55 | 32.06052 | -81.20644 | 2070 ft | 165 kts | 26° |
| 2026-04-21 02:55 | 32.07066 | -81.20017 | 1868 ft | 164 kts | 27° |
| 2026-04-21 02:56 | 32.08065 | -81.19401 | 1694 ft | 161 kts | 27° |
| 2026-04-21 02:56 | 32.10094 | -81.18192 | 1245 ft | 163 kts | 26° |
| 2026-04-21 02:56 | 32.11135 | -81.17710 | 1123 ft | 157 kts | 18° |
| 2026-04-21 02:57 | 32.12165 | -81.17437 | 1062 ft | 146 kts | 7° |
| 2026-04-21 02:57 | 32.13130 | -81.17390 | 1030 ft | 132 kts | 360° |
| 2026-04-21 02:57 | 32.13985 | -81.17387 | 1043 ft | 115 kts | 359° |
| 2026-04-21 02:57 | 32.14793 | -81.17376 | 889 ft | 115 kts | 360° |
| 2026-04-21 02:58 | 32.15322 | -81.17372 | 843 ft | 110 kts | 360° |
| 2026-04-21 02:58 | 32.16217 | -81.17757 | 742 ft | 104 kts | 306° |
| 2026-04-21 02:58 | 32.16355 | -81.17992 | 710 ft | 103 kts | 294° |